createdAt,value
2018-06-02T00:02:06.732Z,92486.79
2018-06-02T00:04:33.029Z,92481.38
2018-06-02T00:06:59.356Z,92477.59
2018-06-02T00:09:25.751Z,92476.50
2018-06-02T00:11:52.072Z,92478.07
2018-06-02T00:14:18.431Z,92481.59
2018-06-02T00:16:44.761Z,92472.69
2018-06-02T00:19:11.062Z,92470.83
2018-06-02T00:21:37.788Z,92469.91
2018-06-02T00:24:04.091Z,92469.99
2018-06-02T00:26:30.379Z,92467.02
2018-06-02T00:28:56.703Z,92478.32
2018-06-02T00:31:23.030Z,92478.61
2018-06-02T00:33:49.358Z,92474.16
2018-06-02T00:36:15.736Z,92472.38
2018-06-02T00:38:42.026Z,92464.84
2018-06-02T00:41:08.329Z,92468.42
2018-06-02T00:43:34.901Z,92467.38
2018-06-02T00:46:01.227Z,92467.34
2018-06-02T00:48:27.524Z,92464.50
2018-06-02T00:50:53.850Z,92459.05
2018-06-02T00:53:20.160Z,92456.77
2018-06-02T00:55:46.452Z,92453.94
2018-06-02T00:58:12.796Z,92455.77
2018-06-02T01:00:39.120Z,92455.75
2018-06-02T01:03:05.436Z,92451.55
2018-06-02T01:05:31.873Z,92459.80
2018-06-02T01:07:58.188Z,92453.78
2018-06-02T01:10:24.593Z,92454.56
2018-06-02T01:12:50.925Z,92455.83
2018-06-02T01:15:17.218Z,92465.13
2018-06-02T01:17:43.580Z,92453.88
2018-06-02T01:20:09.940Z,92453.11
2018-06-02T01:22:36.233Z,92456.11
2018-06-02T01:25:02.573Z,92452.56
2018-06-02T01:27:28.990Z,92461.16
2018-06-02T01:29:55.306Z,92453.98
2018-06-02T01:32:21.603Z,92449.32
2018-06-02T01:34:47.923Z,92452.29
2018-06-02T01:37:14.230Z,92449.03
2018-06-02T01:39:45.920Z,92456.03
2018-06-02T01:42:12.247Z,92454.46
2018-06-02T01:44:38.549Z,92451.69
2018-06-02T01:47:04.836Z,92456.78
2018-06-02T01:49:31.247Z,92456.87
2018-06-02T01:51:57.548Z,92454.61
2018-06-02T01:54:23.844Z,92454.01
2018-06-02T01:56:50.178Z,92449.31
2018-06-02T01:59:16.497Z,92456.19
2018-06-02T02:01:42.789Z,92455.91
2018-06-02T02:04:09.904Z,92461.16
2018-06-02T02:06:36.207Z,92449.31
2018-06-02T02:09:02.624Z,92457.78
2018-06-02T02:11:29.168Z,92451.30
2018-06-02T02:13:55.485Z,92454.67
2018-06-02T02:16:21.786Z,92454.19
2018-06-02T02:18:48.132Z,92455.25
2018-06-02T02:21:14.440Z,92462.78
2018-06-02T02:23:40.744Z,92463.28
2018-06-02T02:26:07.104Z,92456.20
2018-06-02T02:28:33.397Z,92452.88
2018-06-02T02:30:59.682Z,92458.62
2018-06-02T02:33:26.128Z,92460.66
2018-06-02T02:35:52.432Z,92460.47
2018-06-02T02:38:18.733Z,92461.59
2018-06-02T02:40:45.063Z,92452.44
2018-06-02T02:43:11.365Z,92455.34
2018-06-02T02:45:37.673Z,92456.63
2018-06-02T02:48:04.289Z,92460.05
2018-06-02T02:50:30.593Z,92466.00
2018-06-02T02:52:56.893Z,92466.52
2018-06-02T02:55:23.476Z,92467.58
2018-06-02T02:57:49.789Z,92467.23
2018-06-02T03:00:16.097Z,92461.04
2018-06-02T03:02:42.443Z,92466.56
2018-06-02T03:05:08.830Z,92466.52
2018-06-02T03:07:35.271Z,92467.69
2018-06-02T03:10:01.609Z,92473.61
2018-06-02T03:12:28.003Z,92468.64
2018-06-02T03:14:54.304Z,92467.16
2018-06-02T03:17:20.698Z,92465.27
2018-06-02T03:19:46.991Z,92472.48
2018-06-02T03:22:13.283Z,92477.36
2018-06-02T03:24:39.640Z,92469.91
2018-06-02T03:27:05.927Z,92469.69
2018-06-02T03:29:32.211Z,92472.29
2018-06-02T03:31:58.546Z,92464.77
2018-06-02T03:34:24.840Z,92471.00
2018-06-02T03:36:51.138Z,92468.28
2018-06-02T03:39:17.529Z,92468.15
2018-06-02T03:41:43.811Z,92473.33
2018-06-02T03:44:10.108Z,92472.92
2018-06-02T03:46:36.435Z,92472.77
2018-06-02T03:49:02.755Z,92477.09
2018-06-02T03:51:29.048Z,92480.83
2018-06-02T03:53:55.375Z,92478.73
2018-06-02T03:56:21.663Z,92488.45
2018-06-02T03:58:47.963Z,92481.35
2018-06-02T04:01:14.499Z,92486.37
2018-06-02T04:03:40.793Z,92482.08
2018-06-02T04:06:07.077Z,92477.05
2018-06-02T04:08:33.401Z,92480.05
2018-06-02T04:10:59.680Z,92481.22
2018-06-02T04:13:26.067Z,92481.67
2018-06-02T04:15:52.412Z,92482.23
2018-06-02T04:18:18.710Z,92481.62
2018-06-02T04:20:45.015Z,92483.92
2018-06-02T04:23:11.409Z,92477.86
2018-06-02T04:25:37.691Z,92486.66
2018-06-02T04:28:04.132Z,92480.23
2018-06-02T04:30:30.470Z,92479.00
2018-06-02T04:32:57.036Z,92485.24
2018-06-02T04:35:23.326Z,92483.13
2018-06-02T04:37:49.653Z,92485.89
2018-06-02T04:40:15.959Z,92486.62
2018-06-02T04:42:42.263Z,92478.84
2018-06-02T04:45:08.666Z,92488.13
2018-06-02T04:47:34.976Z,92484.39
2018-06-02T04:50:01.273Z,92480.87
2018-06-02T04:52:27.599Z,92475.06
2018-06-02T04:54:53.909Z,92475.64
2018-06-02T04:57:20.211Z,92477.05
2018-06-02T04:59:46.550Z,92471.03
2018-06-02T05:02:12.864Z,92472.33
2018-06-02T05:04:39.143Z,92470.37
2018-06-02T05:07:05.542Z,92476.66
2018-06-02T05:09:31.836Z,92480.49
2018-06-02T05:11:58.116Z,92477.05
2018-06-02T05:14:24.672Z,92481.59
2018-06-02T05:16:50.977Z,92473.46
2018-06-02T05:19:17.270Z,92480.57
2018-06-02T05:21:43.588Z,92477.75
2018-06-02T05:24:10.101Z,92483.30
2018-06-02T05:26:36.638Z,92483.02
2018-06-02T05:29:03.133Z,92480.07
2018-06-02T05:31:29.419Z,92483.45
2018-06-02T05:33:56.181Z,92481.47
2018-06-02T05:36:37.436Z,92478.61
2018-06-02T05:39:04.961Z,92480.30
2018-06-02T05:41:31.246Z,92484.96
2018-06-02T05:43:57.610Z,92475.61
2018-06-02T05:46:23.889Z,92476.41
2018-06-02T05:48:50.172Z,92478.04
2018-06-02T05:51:16.560Z,92478.40
2018-06-02T05:53:42.847Z,92474.04
2018-06-02T05:56:09.205Z,92475.70
2018-06-02T05:58:35.727Z,92473.44
2018-06-02T06:01:02.039Z,92479.83
2018-06-02T06:03:28.375Z,92475.54
2018-06-02T06:05:54.700Z,92472.08
2018-06-02T06:08:21.011Z,92469.23
2018-06-02T06:10:47.311Z,92463.94
2018-06-02T06:13:18.191Z,92460.59
2018-06-02T06:15:44.772Z,92461.03
2018-06-02T06:18:11.100Z,92455.84
2018-06-02T06:20:37.449Z,92460.92
2018-06-02T06:23:04.043Z,92456.63
2018-06-02T06:25:30.423Z,92450.00
2018-06-02T06:27:57.102Z,92455.41
2018-06-02T06:30:23.756Z,92448.16
2018-06-02T06:32:51.005Z,92449.77
2018-06-02T06:35:20.218Z,92457.20
2018-06-02T06:37:46.522Z,92447.94
2018-06-02T06:40:12.854Z,92456.29
2018-06-02T06:42:39.600Z,92450.89
2018-06-02T06:45:05.888Z,92445.41
2018-06-02T06:47:32.177Z,92447.84
2018-06-02T06:49:58.666Z,92445.89
2018-06-02T06:52:25.177Z,92440.46
2018-06-02T06:54:51.469Z,92441.92
2018-06-02T06:57:17.895Z,92438.27
2018-06-02T06:59:44.193Z,92434.48
2018-06-02T07:02:10.491Z,92435.26
2018-06-02T07:04:36.814Z,92435.94
2018-06-02T07:07:03.112Z,92437.69
2018-06-02T07:09:29.521Z,92437.14
2018-06-02T07:11:55.869Z,92445.20
2018-06-02T07:14:22.179Z,92438.72
2018-06-02T07:16:48.614Z,92432.17
2018-06-02T07:19:15.065Z,92434.69
2018-06-02T07:21:41.381Z,92434.80
2018-06-02T07:24:09.900Z,92431.15
2018-06-02T07:26:36.865Z,92429.44
2018-06-02T07:29:03.216Z,92428.09
2018-06-02T07:31:29.538Z,92424.32
2018-06-02T07:33:55.876Z,92427.34
2018-06-02T07:36:22.194Z,92416.38
2018-06-02T07:38:48.523Z,92418.94
2018-06-02T07:41:15.050Z,92413.86
2018-06-02T07:43:41.377Z,92416.73
2018-06-02T07:46:07.792Z,92412.66
2018-06-02T07:48:34.261Z,92421.99
2018-06-02T07:51:00.594Z,92417.41
2018-06-02T07:53:27.078Z,92410.80
2018-06-02T07:55:53.581Z,92407.41
2018-06-02T07:58:19.914Z,92404.64
2018-06-02T08:00:46.308Z,92412.31
2018-06-02T08:05:47.993Z,92405.52
2018-06-02T08:08:15.436Z,92406.59
2018-06-02T08:10:48.202Z,92410.67
2018-06-02T08:13:14.500Z,92407.64
2018-06-02T08:15:41.094Z,92402.09
2018-06-02T08:18:07.753Z,92400.41
2018-06-02T08:20:35.100Z,92397.80
2018-06-02T08:23:04.488Z,92397.83
2018-06-02T08:25:30.891Z,92386.78
2018-06-02T08:27:57.233Z,92391.45
2018-06-02T08:30:23.535Z,92388.31
2018-06-02T08:32:49.872Z,92391.34
2018-06-02T08:35:16.178Z,92390.04
2018-06-02T08:37:42.468Z,92391.97
2018-06-02T08:40:08.792Z,92382.52
2018-06-02T08:42:35.079Z,92386.08
2018-06-02T08:45:01.363Z,92376.69
2018-06-02T08:47:27.754Z,92374.91
2018-06-02T08:49:54.056Z,92365.89
2018-06-02T08:52:20.340Z,92366.95
2018-06-02T08:54:46.687Z,92368.72
2018-06-02T08:57:12.989Z,92361.20
2018-06-02T08:59:39.332Z,92353.34
2018-06-02T09:02:06.656Z,92358.83
2018-06-02T09:04:32.956Z,92358.89
2018-06-02T09:06:59.279Z,92355.89
2018-06-02T09:09:25.667Z,92360.69
2018-06-02T09:11:51.964Z,92351.30
2018-06-02T09:14:18.259Z,92355.25
2018-06-02T09:16:44.596Z,92356.50
2018-06-02T09:19:12.648Z,92354.66
2018-06-02T09:21:38.996Z,92356.33
2018-06-02T09:24:05.478Z,92349.28
2018-06-02T09:26:31.774Z,92353.98
2018-06-02T09:28:58.309Z,92347.98
2018-06-02T09:31:24.819Z,92347.48
2018-06-02T09:33:51.165Z,92342.64
2018-06-02T09:36:17.489Z,92336.83
2018-06-02T09:38:43.838Z,92339.88
2018-06-02T09:41:10.141Z,92336.18
2018-06-02T09:43:36.454Z,92339.51
2018-06-02T09:46:02.863Z,92334.73
2018-06-02T09:48:29.182Z,92329.39
2018-06-02T09:50:55.498Z,92322.18
2018-06-02T09:53:22.063Z,92323.08
2018-06-02T09:55:48.410Z,92319.57
2018-06-02T09:58:14.723Z,92312.84
2018-06-02T10:00:41.086Z,92318.52
2018-06-02T10:03:07.379Z,92313.92
2018-06-02T10:05:33.693Z,92310.27
2018-06-02T10:08:00.069Z,92306.34
2018-06-02T10:10:26.436Z,92306.81
2018-06-02T10:12:52.699Z,92305.55
2018-06-02T10:15:19.112Z,92305.78
2018-06-02T10:17:45.475Z,92295.50
2018-06-02T10:20:11.903Z,92294.83
2018-06-02T10:22:38.243Z,92288.23
2018-06-02T10:25:04.538Z,92291.36
2018-06-02T10:27:30.830Z,92277.83
2018-06-02T10:29:57.158Z,92276.29
2018-06-02T10:32:23.465Z,92275.36
2018-06-02T10:34:49.772Z,92278.52
2018-06-02T10:37:16.179Z,92273.30
2018-06-02T10:39:42.526Z,92269.46
2018-06-02T10:42:08.836Z,92266.84
2018-06-02T10:44:35.215Z,92260.77
2018-06-02T10:47:01.533Z,92260.38
2018-06-02T10:49:27.827Z,92260.22
2018-06-02T10:51:54.181Z,92255.73
2018-06-02T10:54:20.494Z,92258.66
2018-06-02T10:56:46.804Z,92255.23
2018-06-02T10:59:13.200Z,92257.65
2018-06-02T11:01:39.534Z,92257.65
2018-06-02T11:04:05.866Z,92248.75
2018-06-02T11:06:32.187Z,92254.41
2018-06-02T11:08:58.519Z,92244.05
2018-06-02T11:11:24.920Z,92256.96
2018-06-02T11:13:51.277Z,92253.83
2018-06-02T11:16:17.590Z,92250.00
2018-06-02T11:18:43.890Z,92251.38
2018-06-02T11:21:10.405Z,92245.84
2018-06-02T11:23:36.736Z,92245.70
2018-06-02T11:26:03.076Z,92244.66
2018-06-02T11:28:29.407Z,92226.04
2018-06-02T11:30:55.708Z,92227.42
2018-06-02T11:33:22.019Z,92225.55
2018-06-02T11:35:48.426Z,92229.75
2018-06-02T11:38:14.716Z,92236.86
2018-06-02T11:40:41.006Z,92238.37
2018-06-02T11:43:07.451Z,92257.69
2018-06-02T11:45:33.751Z,92249.83
2018-06-02T11:48:00.056Z,92250.66
2018-06-02T11:50:26.419Z,92258.18
2018-06-02T11:52:52.775Z,92253.70
2018-06-02T11:55:19.080Z,92251.19
2018-06-02T11:57:45.472Z,92255.48
2018-06-02T12:00:11.763Z,92252.58
2018-06-02T12:02:38.052Z,92250.06
2018-06-02T12:05:04.488Z,92248.52
2018-06-02T12:07:30.855Z,92243.97
2018-06-02T12:09:58.190Z,92248.27
2018-06-02T12:12:26.216Z,92244.17
2018-06-02T12:14:52.563Z,92233.05
2018-06-02T12:17:18.849Z,92237.06
2018-06-02T12:19:50.316Z,92237.90
2018-06-02T12:22:16.867Z,92231.53
2018-06-02T12:24:43.154Z,92240.64
2018-06-02T12:27:09.585Z,92245.85
2018-06-02T12:29:35.880Z,92233.70
2018-06-02T12:32:02.188Z,92245.16
2018-06-02T12:34:28.518Z,92246.42
2018-06-02T12:36:54.815Z,92255.85
2018-06-02T12:39:21.123Z,92238.39
2018-06-02T12:41:47.468Z,92242.86
2018-06-02T12:44:13.775Z,92246.41
2018-06-02T12:46:40.080Z,92249.09
2018-06-02T12:49:06.572Z,92246.20
2018-06-02T12:51:32.905Z,92245.86
2018-06-02T12:53:59.861Z,92248.28
2018-06-02T12:56:26.210Z,92253.16
2018-06-02T12:58:52.520Z,92247.58
2018-06-02T13:01:18.882Z,92253.53
2018-06-02T13:03:45.248Z,92255.78
2018-06-02T13:06:12.732Z,92247.44
2018-06-02T13:08:39.015Z,92248.08
2018-06-02T13:11:05.428Z,92243.61
2018-06-02T13:13:31.739Z,92241.55
2018-06-02T13:15:58.071Z,92240.57
2018-06-02T13:18:24.507Z,92233.35
2018-06-02T13:20:50.810Z,92231.95
2018-06-02T13:23:17.313Z,92229.11
2018-06-02T13:25:43.660Z,92227.58
2018-06-02T13:28:10.292Z,92227.47
2018-06-02T13:30:36.748Z,92228.66
2018-06-02T13:33:03.467Z,92228.55
2018-06-02T13:35:30.692Z,92221.17
2018-06-02T13:37:57.324Z,92228.36
2018-06-02T13:40:26.755Z,92233.28
2018-06-02T13:42:53.052Z,92227.44
2018-06-02T13:45:19.345Z,92226.56
2018-06-02T13:47:45.679Z,92227.48
2018-06-02T13:50:11.981Z,92227.65
2018-06-02T13:52:38.310Z,92228.97
2018-06-02T13:55:04.771Z,92225.58
2018-06-02T13:57:31.125Z,92233.63
2018-06-02T13:59:57.397Z,92236.37
2018-06-02T14:02:23.715Z,92239.88
2018-06-02T14:04:50.989Z,92232.37
2018-06-02T14:07:17.304Z,92244.42
2018-06-02T14:09:43.643Z,92237.50
2018-06-02T14:12:09.994Z,92236.23
2018-06-02T14:14:36.322Z,92235.02
2018-06-02T14:17:03.444Z,92234.27
2018-06-02T14:19:30.258Z,92226.64
2018-06-02T14:21:56.571Z,92227.70
2018-06-02T14:24:23.143Z,92218.08
2018-06-02T14:26:49.448Z,92216.81
2018-06-02T14:29:15.774Z,92209.60
2018-06-02T14:31:42.089Z,92201.52
2018-06-02T14:34:08.676Z,92201.05
2018-06-02T14:36:34.981Z,92201.68
2018-06-02T14:39:01.383Z,92201.29
2018-06-02T14:41:27.670Z,92191.52
2018-06-02T14:43:53.954Z,92197.66
2018-06-02T14:46:20.294Z,92194.16
2018-06-02T14:48:46.586Z,92204.27
2018-06-02T14:51:12.867Z,92202.64
2018-06-02T14:53:39.176Z,92202.48
2018-06-02T14:56:05.474Z,92205.94
2018-06-02T14:58:31.783Z,92201.89
2018-06-02T15:00:58.246Z,92201.51
2018-06-02T15:03:24.542Z,92203.46
2018-06-02T15:05:50.843Z,92209.84
2018-06-02T15:08:17.173Z,92216.39
2018-06-02T15:10:43.472Z,92212.00
2018-06-02T15:13:09.882Z,92214.66
2018-06-02T15:15:36.334Z,92206.59
2018-06-02T15:18:02.642Z,92215.02
2018-06-02T15:20:28.933Z,92223.83
2018-06-02T15:22:56.896Z,92228.20
2018-06-02T15:25:23.520Z,92232.54
2018-06-02T15:27:49.820Z,92236.77
2018-06-02T15:30:16.172Z,92245.14
2018-06-02T15:32:42.454Z,92253.84
2018-06-02T15:35:08.753Z,92267.25
2018-06-02T15:37:35.102Z,92280.20
2018-06-02T15:40:01.408Z,92277.41
2018-06-02T15:42:27.699Z,92280.39
2018-06-02T15:44:54.079Z,92279.23
2018-06-02T15:47:20.378Z,92278.75
2018-06-02T15:49:46.664Z,92274.77
2018-06-02T15:52:12.993Z,92282.34
2018-06-02T15:54:39.288Z,92287.74
2018-06-02T15:57:05.601Z,92277.93
2018-06-02T15:59:31.923Z,92283.72
2018-06-02T16:01:58.205Z,92290.09
2018-06-02T16:04:24.482Z,92291.62
2018-06-02T16:06:50.871Z,92300.34
2018-06-02T16:09:17.158Z,92298.38
2018-06-02T16:11:43.455Z,92299.75
2018-06-02T16:14:09.784Z,92298.48
2018-06-02T16:16:37.056Z,92301.30
2018-06-02T16:19:03.404Z,92301.48
2018-06-02T16:21:29.784Z,92304.81
2018-06-02T16:23:56.098Z,92311.39
2018-06-02T16:26:22.499Z,92309.17
2018-06-02T16:28:49.758Z,92310.87
2018-06-02T16:31:16.051Z,92321.17
2018-06-02T16:33:42.360Z,92312.94
2018-06-02T16:36:08.694Z,92314.69
2018-06-02T16:38:34.980Z,92322.76
2018-06-02T16:41:01.279Z,92322.98
2018-06-02T16:43:28.629Z,92329.58
2018-06-02T16:45:54.942Z,92338.34
2018-06-02T16:48:21.232Z,92347.48
2018-06-02T16:50:47.652Z,92353.50
2018-06-02T16:53:13.931Z,92363.87
2018-06-02T16:55:40.216Z,92364.62
2018-06-02T16:58:06.551Z,92374.94
2018-06-02T17:00:32.905Z,92370.23
2018-06-02T17:02:59.205Z,92375.77
2018-06-02T17:05:25.532Z,92382.19
2018-06-02T17:07:51.836Z,92387.20
2018-06-02T17:10:18.126Z,92387.50
2018-06-02T17:12:44.542Z,92403.36
2018-06-02T17:15:10.831Z,92405.59
2018-06-02T17:17:37.228Z,92413.34
2018-06-02T17:20:03.598Z,92432.08
2018-06-02T17:22:29.907Z,92440.37
2018-06-02T17:24:56.202Z,92448.82
2018-06-02T17:27:24.800Z,92451.59
2018-06-02T17:29:51.207Z,92456.52
2018-06-02T17:32:17.497Z,92461.45
2018-06-02T17:34:44.800Z,92461.19
2018-06-02T17:37:11.122Z,92456.88
2018-06-02T17:39:37.409Z,92460.50
2018-06-02T17:42:03.768Z,92472.11
2018-06-02T17:44:30.050Z,92470.45
2018-06-02T17:46:56.337Z,92467.81
2018-06-02T17:49:22.658Z,92473.19
2018-06-02T17:51:49.927Z,92479.53
2018-06-02T17:54:16.235Z,92474.13
2018-06-02T17:56:43.006Z,92466.26
2018-06-02T17:59:09.308Z,92465.95
2018-06-02T18:01:35.606Z,92471.34
2018-06-02T18:04:01.969Z,92478.05
2018-06-02T18:06:28.299Z,92483.75
2018-06-02T18:08:54.617Z,92476.22
2018-06-02T18:11:20.971Z,92481.27
2018-06-02T18:13:47.266Z,92476.72
2018-06-02T18:16:13.559Z,92478.72
2018-06-02T18:18:39.970Z,92479.68
2018-06-02T18:21:06.267Z,92475.65
2018-06-02T18:23:32.547Z,92485.42
2018-06-02T18:25:58.903Z,92477.06
2018-06-02T18:28:25.367Z,92484.22
2018-06-02T18:30:51.675Z,92476.69
2018-06-02T18:33:18.048Z,92477.58
2018-06-02T18:35:44.353Z,92475.86
2018-06-02T18:38:10.676Z,92466.08
2018-06-02T18:40:37.254Z,92460.22
2018-06-02T18:43:03.598Z,92467.72
2018-06-02T18:45:29.888Z,92464.88
2018-06-02T18:47:56.223Z,92469.76
2018-06-02T18:50:22.526Z,92468.88
2018-06-02T18:52:48.832Z,92465.64
2018-06-02T18:55:15.154Z,92468.78
2018-06-02T18:57:41.510Z,92466.23
2018-06-02T19:00:07.831Z,92464.58
2018-06-02T19:02:34.477Z,92465.25
2018-06-02T19:05:00.818Z,92462.84
2018-06-02T19:07:27.199Z,92461.27
2018-06-02T19:09:53.548Z,92464.53
2018-06-02T19:12:19.912Z,92458.98
2018-06-02T19:14:46.380Z,92463.77
2018-06-02T19:17:12.756Z,92465.63
2018-06-02T19:19:39.071Z,92460.18
2018-06-02T19:22:05.384Z,92465.46
2018-06-02T19:24:31.835Z,92468.73
2018-06-02T19:26:58.145Z,92465.68
2018-06-02T19:29:24.659Z,92459.05
2018-06-02T19:31:50.915Z,92455.23
2018-06-02T19:34:17.195Z,92443.98
2018-06-02T19:36:43.490Z,92441.02
2018-06-02T19:39:09.832Z,92430.35
2018-06-02T19:41:36.132Z,92432.06
2018-06-02T19:44:02.495Z,92432.75
2018-06-02T19:46:28.905Z,92423.17
2018-06-02T19:48:55.196Z,92423.85
2018-06-02T19:51:22.277Z,92425.10
2018-06-02T19:53:48.739Z,92421.51
2018-06-02T19:56:15.175Z,92422.11
2018-06-02T19:58:41.481Z,92411.75
2018-06-02T20:01:07.801Z,92406.12
2018-06-02T20:03:34.098Z,92403.43
2018-06-02T20:06:00.395Z,92401.28
2018-06-02T20:08:26.809Z,92397.48
2018-06-02T20:10:53.128Z,92394.59
2018-06-02T20:13:19.824Z,92396.14
2018-06-02T20:15:46.163Z,92397.23
2018-06-02T20:18:12.470Z,92386.06
2018-06-02T20:20:38.791Z,92390.38
2018-06-02T20:23:05.123Z,92377.36
2018-06-02T20:25:31.440Z,92377.14
2018-06-02T20:27:58.508Z,92380.31
2018-06-02T20:30:25.215Z,92370.77
2018-06-02T20:32:51.504Z,92364.22
2018-06-02T20:35:17.819Z,92374.70
2018-06-02T20:37:44.182Z,92370.68
2018-06-02T20:40:10.486Z,92365.84
2018-06-02T20:42:37.145Z,92365.99
2018-06-02T20:45:05.158Z,92372.97
2018-06-02T20:47:31.473Z,92365.02
2018-06-02T20:49:57.764Z,92370.25
2018-06-02T20:52:24.171Z,92364.22
2018-06-02T20:54:50.677Z,92366.95
2018-06-02T20:57:16.999Z,92368.88
2018-06-02T20:59:43.421Z,92369.36
2018-06-02T21:02:09.747Z,92373.44
2018-06-02T21:04:36.077Z,92368.36
2018-06-02T21:07:02.448Z,92372.64
2018-06-02T21:09:28.728Z,92369.58
2018-06-02T21:11:55.021Z,92368.22
2018-06-02T21:14:21.490Z,92366.28
2018-06-02T21:16:47.790Z,92372.02
2018-06-02T21:19:14.085Z,92364.70
2018-06-02T21:21:40.460Z,92364.72
2018-06-02T21:24:06.791Z,92358.00
2018-06-02T21:26:33.092Z,92357.47
2018-06-02T21:28:59.454Z,92353.87
2018-06-02T21:31:25.966Z,92346.97
2018-06-02T21:33:52.303Z,92350.75
2018-06-02T21:39:43.037Z,92351.78
2018-06-02T21:42:10.883Z,92353.61
2018-06-02T21:44:38.715Z,92350.80
2018-06-02T21:47:06.532Z,92343.59
2018-06-02T21:49:34.379Z,92342.13
2018-06-02T21:52:02.370Z,92342.73
2018-06-02T21:54:30.172Z,92346.84
2018-06-02T21:56:58.070Z,92348.66
2018-06-02T21:59:25.950Z,92350.88
2018-06-02T22:01:53.831Z,92347.46
2018-06-02T22:04:21.671Z,92353.47
2018-06-02T22:06:49.789Z,92350.52
2018-06-02T22:09:17.632Z,92352.27
2018-06-02T22:11:45.575Z,92350.90
2018-06-02T22:14:13.806Z,92348.16
2018-06-02T22:16:41.871Z,92350.23
2018-06-02T22:19:10.048Z,92344.88
2018-06-02T22:21:37.924Z,92345.58
2018-06-02T22:24:05.910Z,92353.98
2018-06-02T22:26:33.955Z,92355.87
2018-06-02T22:29:01.830Z,92348.63
2018-06-02T22:31:29.974Z,92358.46
2018-06-02T22:33:58.034Z,92367.08
2018-06-02T22:36:25.895Z,92364.58
2018-06-02T22:38:53.762Z,92359.20
2018-06-02T22:41:21.978Z,92359.78
2018-06-02T22:43:50.440Z,92362.75
2018-06-02T22:46:18.338Z,92357.63
2018-06-02T22:48:46.455Z,92357.10
2018-06-02T22:51:14.622Z,92359.23
2018-06-02T22:53:45.558Z,92363.75
2018-06-02T22:56:13.679Z,92358.56
2018-06-02T22:58:41.773Z,92360.16
2018-06-02T23:01:15.485Z,92360.48
2018-06-02T23:03:45.515Z,92358.73
2018-06-02T23:06:13.745Z,92360.22
2018-06-02T23:08:42.059Z,92362.80
2018-06-02T23:11:11.865Z,92358.61
2018-06-02T23:13:39.853Z,92362.22
2018-06-02T23:16:07.831Z,92358.48
2018-06-02T23:18:35.631Z,92355.91
2018-06-02T23:21:03.443Z,92352.80
2018-06-02T23:23:31.376Z,92355.36
2018-06-02T23:25:59.203Z,92349.48
2018-06-02T23:28:27.021Z,92344.12
2018-06-02T23:30:54.856Z,92345.23
2018-06-02T23:33:22.801Z,92348.96
2018-06-02T23:35:50.610Z,92346.35
2018-06-02T23:38:18.440Z,92347.40
2018-06-02T23:40:46.287Z,92354.75
2018-06-02T23:43:14.088Z,92349.77
2018-06-02T23:45:42.060Z,92354.36
2018-06-02T23:48:10.026Z,92343.83
2018-06-02T23:50:37.992Z,92352.88
2018-06-02T23:53:05.840Z,92345.95
2018-06-02T23:55:33.640Z,92350.35
2018-06-02T23:58:01.452Z,92352.94
